sensor_id;sensor_type;location;lat;lon;timestamp;temperature;humidity
37786;DHT22;23625;48.784;9.336;2023-04-30T00:01:48;11.10;99.90
37786;DHT22;23625;48.784;9.336;2023-04-30T00:04:14;11.00;99.90
37786;DHT22;23625;48.784;9.336;2023-04-30T00:06:40;11.00;99.90
37786;DHT22;23625;48.784;9.336;2023-04-30T00:09:05;10.90;99.90
37786;DHT22;23625;48.784;9.336;2023-04-30T00:11:31;10.90;99.90
37786;DHT22;23625;48.784;9.336;2023-04-30T00:13:56;10.90;99.90
37786;DHT22;23625;48.784;9.336;2023-04-30T00:16:22;10.90;99.90
37786;DHT22;23625;48.784;9.336;2023-04-30T00:18:48;10.90;99.90
37786;DHT22;23625;48.784;9.336;2023-04-30T00:21:13;10.90;99.90
37786;DHT22;23625;48.784;9.336;2023-04-30T00:23:39;10.90;99.90
37786;DHT22;23625;48.784;9.336;2023-04-30T00:26:04;10.90;99.90
37786;DHT22;23625;48.784;9.336;2023-04-30T00:28:30;10.90;99.90
37786;DHT22;23625;48.784;9.336;2023-04-30T00:30:55;10.90;99.90
37786;DHT22;23625;48.784;9.336;2023-04-30T00:33:21;10.90;99.90
37786;DHT22;23625;48.784;9.336;2023-04-30T00:35:47;10.90;99.90
37786;DHT22;23625;48.784;9.336;2023-04-30T00:38:12;10.90;99.90
37786;DHT22;23625;48.784;9.336;2023-04-30T00:40:39;10.80;99.90
37786;DHT22;23625;48.784;9.336;2023-04-30T00:43:05;10.90;99.90
37786;DHT22;23625;48.784;9.336;2023-04-30T00:45:31;10.80;99.90
37786;DHT22;23625;48.784;9.336;2023-04-30T00:47:57;10.80;99.90
37786;DHT22;23625;48.784;9.336;2023-04-30T00:50:22;10.90;99.90
37786;DHT22;23625;48.784;9.336;2023-04-30T00:52:49;10.90;99.90
37786;DHT22;23625;48.784;9.336;2023-04-30T00:55:15;10.90;99.90
37786;DHT22;23625;48.784;9.336;2023-04-30T00:57:41;10.80;99.90
37786;DHT22;23625;48.784;9.336;2023-04-30T01:00:07;10.80;99.90
37786;DHT22;23625;48.784;9.336;2023-04-30T01:02:36;10.80;99.90
37786;DHT22;23625;48.784;9.336;2023-04-30T01:05:03;10.80;99.90
37786;DHT22;23625;48.784;9.336;2023-04-30T01:07:29;10.80;99.90
37786;DHT22;23625;48.784;9.336;2023-04-30T01:09:55;10.70;99.90
37786;DHT22;23625;48.784;9.336;2023-04-30T01:12:38;10.70;99.90
37786;DHT22;23625;48.784;9.336;2023-04-30T01:15:22;10.70;99.90
37786;DHT22;23625;48.784;9.336;2023-04-30T01:18:24;10.70;99.90
37786;DHT22;23625;48.784;9.336;2023-04-30T01:21:05;10.70;99.90
37786;DHT22;23625;48.784;9.336;2023-04-30T01:24:36;10.60;99.90
37786;DHT22;23625;48.784;9.336;2023-04-30T01:28:58;10.60;99.90
37786;DHT22;23625;48.784;9.336;2023-04-30T01:31:27;10.70;99.90
37786;DHT22;23625;48.784;9.336;2023-04-30T01:33:53;10.60;99.90
37786;DHT22;23625;48.784;9.336;2023-04-30T01:36:40;10.60;99.90
37786;DHT22;23625;48.784;9.336;2023-04-30T01:39:19;10.50;99.90
37786;DHT22;23625;48.784;9.336;2023-04-30T01:48:02;10.50;99.90
37786;DHT22;23625;48.784;9.336;2023-04-30T01:50:48;10.50;99.90
37786;DHT22;23625;48.784;9.336;2023-04-30T01:53:23;10.50;99.90
37786;DHT22;23625;48.784;9.336;2023-04-30T01:56:02;10.50;99.90
37786;DHT22;23625;48.784;9.336;2023-04-30T01:58:29;10.50;99.90
37786;DHT22;23625;48.784;9.336;2023-04-30T02:00:55;10.50;99.90
37786;DHT22;23625;48.784;9.336;2023-04-30T02:03:20;10.40;99.90
37786;DHT22;23625;48.784;9.336;2023-04-30T02:05:46;10.50;99.90
37786;DHT22;23625;48.784;9.336;2023-04-30T02:08:12;10.40;99.90
37786;DHT22;23625;48.784;9.336;2023-04-30T02:10:37;10.40;99.90
37786;DHT22;23625;48.784;9.336;2023-04-30T02:13:03;10.30;99.90
37786;DHT22;23625;48.784;9.336;2023-04-30T02:15:28;10.30;99.90
37786;DHT22;23625;48.784;9.336;2023-04-30T02:17:54;10.20;99.90
37786;DHT22;23625;48.784;9.336;2023-04-30T02:20:20;10.20;99.90
37786;DHT22;23625;48.784;9.336;2023-04-30T02:22:45;10.20;99.90
37786;DHT22;23625;48.784;9.336;2023-04-30T02:25:11;10.10;99.90
37786;DHT22;23625;48.784;9.336;2023-04-30T02:27:37;10.10;99.90
37786;DHT22;23625;48.784;9.336;2023-04-30T02:30:03;10.10;99.90
37786;DHT22;23625;48.784;9.336;2023-04-30T02:32:29;10.00;99.90
37786;DHT22;23625;48.784;9.336;2023-04-30T02:34:55;9.90;99.90
37786;DHT22;23625;48.784;9.336;2023-04-30T02:37:21;9.90;99.90
37786;DHT22;23625;48.784;9.336;2023-04-30T02:39:47;9.90;99.90
37786;DHT22;23625;48.784;9.336;2023-04-30T02:42:12;9.90;99.90
37786;DHT22;23625;48.784;9.336;2023-04-30T02:44:38;9.90;99.90
37786;DHT22;23625;48.784;9.336;2023-04-30T02:47:04;9.90;99.90
37786;DHT22;23625;48.784;9.336;2023-04-30T02:49:29;9.90;99.90
37786;DHT22;23625;48.784;9.336;2023-04-30T02:51:55;9.90;99.90
37786;DHT22;23625;48.784;9.336;2023-04-30T02:54:21;9.80;99.90
37786;DHT22;23625;48.784;9.336;2023-04-30T02:56:46;9.80;99.90
37786;DHT22;23625;48.784;9.336;2023-04-30T02:59:12;9.90;99.90
37786;DHT22;23625;48.784;9.336;2023-04-30T03:01:37;9.90;99.90
37786;DHT22;23625;48.784;9.336;2023-04-30T03:04:03;9.90;99.90
37786;DHT22;23625;48.784;9.336;2023-04-30T03:06:30;9.90;99.90
37786;DHT22;23625;48.784;9.336;2023-04-30T03:08:56;9.90;99.90
37786;DHT22;23625;48.784;9.336;2023-04-30T03:11:21;9.90;99.90
37786;DHT22;23625;48.784;9.336;2023-04-30T03:13:47;9.90;99.90
37786;DHT22;23625;48.784;9.336;2023-04-30T03:16:17;9.80;99.90
37786;DHT22;23625;48.784;9.336;2023-04-30T03:18:44;9.80;99.90
37786;DHT22;23625;48.784;9.336;2023-04-30T03:21:10;9.70;99.90
37786;DHT22;23625;48.784;9.336;2023-04-30T03:23:35;9.70;99.90
37786;DHT22;23625;48.784;9.336;2023-04-30T03:26:01;9.70;99.90
37786;DHT22;23625;48.784;9.336;2023-04-30T03:28:26;9.80;99.90
37786;DHT22;23625;48.784;9.336;2023-04-30T03:30:52;9.70;99.90
37786;DHT22;23625;48.784;9.336;2023-04-30T03:33:17;9.80;99.90
37786;DHT22;23625;48.784;9.336;2023-04-30T03:35:43;9.70;99.90
37786;DHT22;23625;48.784;9.336;2023-04-30T03:38:09;9.70;99.90
37786;DHT22;23625;48.784;9.336;2023-04-30T03:40:34;9.80;99.90
37786;DHT22;23625;48.784;9.336;2023-04-30T03:43:00;9.80;99.90
37786;DHT22;23625;48.784;9.336;2023-04-30T03:45:25;9.80;99.90
37786;DHT22;23625;48.784;9.336;2023-04-30T03:47:51;9.80;99.90
37786;DHT22;23625;48.784;9.336;2023-04-30T03:50:17;9.80;99.90
37786;DHT22;23625;48.784;9.336;2023-04-30T03:52:43;9.70;99.90
37786;DHT22;23625;48.784;9.336;2023-04-30T03:55:10;9.70;99.90
37786;DHT22;23625;48.784;9.336;2023-04-30T03:57:35;9.70;99.90
37786;DHT22;23625;48.784;9.336;2023-04-30T04:00:02;9.70;99.90
37786;DHT22;23625;48.784;9.336;2023-04-30T04:02:32;9.60;99.90
37786;DHT22;23625;48.784;9.336;2023-04-30T04:04:58;9.60;99.90
37786;DHT22;23625;48.784;9.336;2023-04-30T04:07:23;9.60;99.90
37786;DHT22;23625;48.784;9.336;2023-04-30T04:09:49;9.60;99.90
37786;DHT22;23625;48.784;9.336;2023-04-30T04:12:15;9.60;99.90
37786;DHT22;23625;48.784;9.336;2023-04-30T04:14:40;9.60;99.90
37786;DHT22;23625;48.784;9.336;2023-04-30T04:17:06;9.60;99.90
37786;DHT22;23625;48.784;9.336;2023-04-30T04:19:32;9.50;99.90
37786;DHT22;23625;48.784;9.336;2023-04-30T04:21:57;9.50;99.90
37786;DHT22;23625;48.784;9.336;2023-04-30T04:24:24;9.50;99.90
37786;DHT22;23625;48.784;9.336;2023-04-30T04:26:50;9.60;99.90
37786;DHT22;23625;48.784;9.336;2023-04-30T04:29:16;9.60;99.90
37786;DHT22;23625;48.784;9.336;2023-04-30T04:31:42;9.60;99.90
37786;DHT22;23625;48.784;9.336;2023-04-30T04:34:08;9.60;99.90
37786;DHT22;23625;48.784;9.336;2023-04-30T04:36:33;9.70;99.90
37786;DHT22;23625;48.784;9.336;2023-04-30T04:38:59;9.70;99.90
37786;DHT22;23625;48.784;9.336;2023-04-30T04:41:31;9.80;99.90
37786;DHT22;23625;48.784;9.336;2023-04-30T04:43:58;9.80;99.90
37786;DHT22;23625;48.784;9.336;2023-04-30T04:46:24;9.80;99.90
37786;DHT22;23625;48.784;9.336;2023-04-30T04:48:51;9.80;99.90
37786;DHT22;23625;48.784;9.336;2023-04-30T04:51:17;9.90;99.90
37786;DHT22;23625;48.784;9.336;2023-04-30T04:53:43;9.90;99.90
37786;DHT22;23625;48.784;9.336;2023-04-30T04:56:08;10.00;99.90
37786;DHT22;23625;48.784;9.336;2023-04-30T04:58:34;10.10;99.90
37786;DHT22;23625;48.784;9.336;2023-04-30T05:01:00;10.10;99.90
37786;DHT22;23625;48.784;9.336;2023-04-30T05:05:12;10.20;99.90
37786;DHT22;23625;48.784;9.336;2023-04-30T05:07:39;10.30;99.90
37786;DHT22;23625;48.784;9.336;2023-04-30T05:10:06;10.30;99.90
37786;DHT22;23625;48.784;9.336;2023-04-30T05:12:32;10.40;99.90
37786;DHT22;23625;48.784;9.336;2023-04-30T05:14:57;10.50;99.90
37786;DHT22;23625;48.784;9.336;2023-04-30T05:17:23;10.50;99.90
37786;DHT22;23625;48.784;9.336;2023-04-30T05:19:49;10.50;99.90
37786;DHT22;23625;48.784;9.336;2023-04-30T05:22:15;10.60;99.90
37786;DHT22;23625;48.784;9.336;2023-04-30T05:24:41;10.70;99.90
37786;DHT22;23625;48.784;9.336;2023-04-30T05:27:07;10.70;99.90
37786;DHT22;23625;48.784;9.336;2023-04-30T05:29:33;10.80;99.90
37786;DHT22;23625;48.784;9.336;2023-04-30T05:31:59;10.90;99.90
37786;DHT22;23625;48.784;9.336;2023-04-30T05:34:24;11.00;99.90
37786;DHT22;23625;48.784;9.336;2023-04-30T05:36:50;11.00;99.90
37786;DHT22;23625;48.784;9.336;2023-04-30T05:39:15;11.10;99.90
37786;DHT22;23625;48.784;9.336;2023-04-30T05:41:41;11.30;99.90
37786;DHT22;23625;48.784;9.336;2023-04-30T05:44:07;11.30;99.90
37786;DHT22;23625;48.784;9.336;2023-04-30T05:46:32;11.40;99.90
37786;DHT22;23625;48.784;9.336;2023-04-30T05:48:59;11.40;99.90
37786;DHT22;23625;48.784;9.336;2023-04-30T05:51:25;11.40;99.90
37786;DHT22;23625;48.784;9.336;2023-04-30T05:53:52;11.40;99.90
37786;DHT22;23625;48.784;9.336;2023-04-30T05:56:18;11.40;99.90
37786;DHT22;23625;48.784;9.336;2023-04-30T05:58:43;11.50;99.90
37786;DHT22;23625;48.784;9.336;2023-04-30T06:01:09;11.50;99.90
37786;DHT22;23625;48.784;9.336;2023-04-30T06:03:36;11.50;99.90
37786;DHT22;23625;48.784;9.336;2023-04-30T06:06:02;11.60;99.90
37786;DHT22;23625;48.784;9.336;2023-04-30T06:08:28;11.60;99.90
37786;DHT22;23625;48.784;9.336;2023-04-30T06:10:54;11.60;99.90
37786;DHT22;23625;48.784;9.336;2023-04-30T06:13:20;11.70;99.90
37786;DHT22;23625;48.784;9.336;2023-04-30T06:15:46;11.80;99.90
37786;DHT22;23625;48.784;9.336;2023-04-30T06:18:12;11.80;99.90
37786;DHT22;23625;48.784;9.336;2023-04-30T06:20:38;11.90;99.90
37786;DHT22;23625;48.784;9.336;2023-04-30T06:23:04;11.90;99.90
37786;DHT22;23625;48.784;9.336;2023-04-30T06:25:30;11.90;99.90
37786;DHT22;23625;48.784;9.336;2023-04-30T06:27:55;12.10;99.90
37786;DHT22;23625;48.784;9.336;2023-04-30T06:30:21;12.20;99.90
37786;DHT22;23625;48.784;9.336;2023-04-30T06:32:47;12.20;99.90
37786;DHT22;23625;48.784;9.336;2023-04-30T06:35:13;12.30;99.90
37786;DHT22;23625;48.784;9.336;2023-04-30T06:37:38;12.40;99.90
37786;DHT22;23625;48.784;9.336;2023-04-30T06:40:05;12.40;99.90
37786;DHT22;23625;48.784;9.336;2023-04-30T06:42:32;12.50;99.90
37786;DHT22;23625;48.784;9.336;2023-04-30T06:45:03;12.60;99.90
37786;DHT22;23625;48.784;9.336;2023-04-30T06:47:29;12.70;99.90
37786;DHT22;23625;48.784;9.336;2023-04-30T06:50:07;12.80;99.90
37786;DHT22;23625;48.784;9.336;2023-04-30T06:52:33;12.90;99.90
37786;DHT22;23625;48.784;9.336;2023-04-30T06:54:58;12.80;99.90
37786;DHT22;23625;48.784;9.336;2023-04-30T06:57:25;12.70;99.90
37786;DHT22;23625;48.784;9.336;2023-04-30T06:59:51;12.80;99.90
37786;DHT22;23625;48.784;9.336;2023-04-30T07:02:17;12.80;99.90
37786;DHT22;23625;48.784;9.336;2023-04-30T07:04:43;12.80;99.90
37786;DHT22;23625;48.784;9.336;2023-04-30T07:07:08;12.90;99.90
37786;DHT22;23625;48.784;9.336;2023-04-30T07:09:34;13.00;99.90
37786;DHT22;23625;48.784;9.336;2023-04-30T07:12:01;13.10;99.90
37786;DHT22;23625;48.784;9.336;2023-04-30T07:14:26;13.10;99.90
37786;DHT22;23625;48.784;9.336;2023-04-30T07:16:52;13.30;99.90
37786;DHT22;23625;48.784;9.336;2023-04-30T07:19:18;13.40;99.90
37786;DHT22;23625;48.784;9.336;2023-04-30T07:21:44;13.60;99.90
37786;DHT22;23625;48.784;9.336;2023-04-30T07:24:09;13.80;99.90
37786;DHT22;23625;48.784;9.336;2023-04-30T07:26:35;13.80;99.90
37786;DHT22;23625;48.784;9.336;2023-04-30T07:29:01;13.90;99.90
37786;DHT22;23625;48.784;9.336;2023-04-30T07:31:28;14.10;99.90
37786;DHT22;23625;48.784;9.336;2023-04-30T07:33:54;14.20;99.90
37786;DHT22;23625;48.784;9.336;2023-04-30T07:36:20;14.20;99.90
37786;DHT22;23625;48.784;9.336;2023-04-30T07:38:46;14.20;99.90
37786;DHT22;23625;48.784;9.336;2023-04-30T07:41:12;14.40;99.90
37786;DHT22;23625;48.784;9.336;2023-04-30T07:43:37;14.60;99.90
37786;DHT22;23625;48.784;9.336;2023-04-30T07:46:03;14.70;99.90
37786;DHT22;23625;48.784;9.336;2023-04-30T07:48:29;14.80;99.90
37786;DHT22;23625;48.784;9.336;2023-04-30T07:50:55;15.00;99.90
37786;DHT22;23625;48.784;9.336;2023-04-30T07:53:22;15.10;99.90
37786;DHT22;23625;48.784;9.336;2023-04-30T07:55:48;15.20;99.90
37786;DHT22;23625;48.784;9.336;2023-04-30T07:58:13;15.20;99.90
37786;DHT22;23625;48.784;9.336;2023-04-30T08:00:39;15.30;97.90
37786;DHT22;23625;48.784;9.336;2023-04-30T08:03:05;15.40;95.00
37786;DHT22;23625;48.784;9.336;2023-04-30T08:05:30;15.50;93.90
37786;DHT22;23625;48.784;9.336;2023-04-30T08:07:56;15.80;94.50
37786;DHT22;23625;48.784;9.336;2023-04-30T08:10:22;15.80;91.80
37786;DHT22;23625;48.784;9.336;2023-04-30T08:12:47;15.90;91.40
37786;DHT22;23625;48.784;9.336;2023-04-30T08:15:13;16.00;89.40
37786;DHT22;23625;48.784;9.336;2023-04-30T08:17:39;15.90;87.30
37786;DHT22;23625;48.784;9.336;2023-04-30T08:20:05;15.90;86.90
37786;DHT22;23625;48.784;9.336;2023-04-30T08:22:31;16.10;91.00
37786;DHT22;23625;48.784;9.336;2023-04-30T08:24:57;16.20;87.70
37786;DHT22;23625;48.784;9.336;2023-04-30T08:27:23;16.20;88.70
37786;DHT22;23625;48.784;9.336;2023-04-30T08:29:48;16.30;86.10
37786;DHT22;23625;48.784;9.336;2023-04-30T08:32:14;16.50;83.60
37786;DHT22;23625;48.784;9.336;2023-04-30T08:34:40;16.50;79.20
37786;DHT22;23625;48.784;9.336;2023-04-30T08:37:06;16.70;78.30
37786;DHT22;23625;48.784;9.336;2023-04-30T08:39:32;16.60;75.60
37786;DHT22;23625;48.784;9.336;2023-04-30T08:42:01;16.60;75.60
37786;DHT22;23625;48.784;9.336;2023-04-30T08:44:28;16.50;78.90
37786;DHT22;23625;48.784;9.336;2023-04-30T08:46:55;16.40;79.10
37786;DHT22;23625;48.784;9.336;2023-04-30T08:49:23;16.30;75.40
37786;DHT22;23625;48.784;9.336;2023-04-30T08:51:50;16.30;75.90
37786;DHT22;23625;48.784;9.336;2023-04-30T08:54:17;16.40;73.70
37786;DHT22;23625;48.784;9.336;2023-04-30T08:56:44;16.50;72.50
37786;DHT22;23625;48.784;9.336;2023-04-30T08:59:11;16.50;72.40
37786;DHT22;23625;48.784;9.336;2023-04-30T09:01:37;16.50;71.20
37786;DHT22;23625;48.784;9.336;2023-04-30T09:04:04;16.40;71.90
37786;DHT22;23625;48.784;9.336;2023-04-30T09:06:30;16.30;66.40
37786;DHT22;23625;48.784;9.336;2023-04-30T09:08:56;16.30;67.60
37786;DHT22;23625;48.784;9.336;2023-04-30T09:11:31;16.30;68.10
37786;DHT22;23625;48.784;9.336;2023-04-30T09:13:58;16.40;69.10
37786;DHT22;23625;48.784;9.336;2023-04-30T09:16:25;16.50;69.00
37786;DHT22;23625;48.784;9.336;2023-04-30T09:18:51;16.50;68.90
37786;DHT22;23625;48.784;9.336;2023-04-30T09:21:35;16.60;67.20
37786;DHT22;23625;48.784;9.336;2023-04-30T09:24:03;16.70;66.00
37786;DHT22;23625;48.784;9.336;2023-04-30T09:26:34;16.80;65.20
37786;DHT22;23625;48.784;9.336;2023-04-30T09:29:00;16.80;65.70
37786;DHT22;23625;48.784;9.336;2023-04-30T09:31:35;16.70;64.80
37786;DHT22;23625;48.784;9.336;2023-04-30T09:34:02;16.60;64.40
37786;DHT22;23625;48.784;9.336;2023-04-30T09:36:28;16.60;65.20
37786;DHT22;23625;48.784;9.336;2023-04-30T09:38:54;16.50;64.00
37786;DHT22;23625;48.784;9.336;2023-04-30T09:41:25;16.60;63.10
37786;DHT22;23625;48.784;9.336;2023-04-30T09:43:52;16.60;63.10
37786;DHT22;23625;48.784;9.336;2023-04-30T09:46:19;16.70;64.30
37786;DHT22;23625;48.784;9.336;2023-04-30T09:48:45;17.00;62.20
37786;DHT22;23625;48.784;9.336;2023-04-30T09:51:11;17.20;61.40
37786;DHT22;23625;48.784;9.336;2023-04-30T09:53:37;17.40;59.80
37786;DHT22;23625;48.784;9.336;2023-04-30T09:56:06;17.20;59.50
37786;DHT22;23625;48.784;9.336;2023-04-30T09:58:35;17.30;60.60
37786;DHT22;23625;48.784;9.336;2023-04-30T10:01:04;17.20;60.60
37786;DHT22;23625;48.784;9.336;2023-04-30T10:03:31;17.30;59.90
37786;DHT22;23625;48.784;9.336;2023-04-30T10:05:58;17.10;59.60
37786;DHT22;23625;48.784;9.336;2023-04-30T10:11:02;17.10;60.80
37786;DHT22;23625;48.784;9.336;2023-04-30T10:13:31;17.00;60.60
37786;DHT22;23625;48.784;9.336;2023-04-30T10:16:03;16.90;61.00
37786;DHT22;23625;48.784;9.336;2023-04-30T10:18:34;16.70;61.50
37786;DHT22;23625;48.784;9.336;2023-04-30T10:21:06;16.60;62.80
37786;DHT22;23625;48.784;9.336;2023-04-30T10:23:39;16.60;62.80
37786;DHT22;23625;48.784;9.336;2023-04-30T10:26:11;16.70;62.90
37786;DHT22;23625;48.784;9.336;2023-04-30T10:28:38;16.70;63.90
37786;DHT22;23625;48.784;9.336;2023-04-30T10:31:06;16.70;62.90
37786;DHT22;23625;48.784;9.336;2023-04-30T10:36:06;16.70;63.60
37786;DHT22;23625;48.784;9.336;2023-04-30T10:38:35;16.70;63.20
37786;DHT22;23625;48.784;9.336;2023-04-30T10:41:05;16.70;63.20
37786;DHT22;23625;48.784;9.336;2023-04-30T10:43:31;16.80;63.70
37786;DHT22;23625;48.784;9.336;2023-04-30T10:45:59;16.80;63.30
37786;DHT22;23625;48.784;9.336;2023-04-30T10:48:25;16.90;63.30
37786;DHT22;23625;48.784;9.336;2023-04-30T10:50:56;16.80;63.50
37786;DHT22;23625;48.784;9.336;2023-04-30T10:53:21;16.90;62.30
37786;DHT22;23625;48.784;9.336;2023-04-30T10:55:59;16.90;62.40
37786;DHT22;23625;48.784;9.336;2023-04-30T10:58:26;16.90;61.70
37786;DHT22;23625;48.784;9.336;2023-04-30T11:03:28;17.00;60.00
37786;DHT22;23625;48.784;9.336;2023-04-30T11:05:54;17.00;59.90
37786;DHT22;23625;48.784;9.336;2023-04-30T11:08:32;16.90;59.70
37786;DHT22;23625;48.784;9.336;2023-04-30T11:10:58;16.90;59.80
37786;DHT22;23625;48.784;9.336;2023-04-30T11:13:26;16.80;60.10
37786;DHT22;23625;48.784;9.336;2023-04-30T11:15:52;16.90;60.10
37786;DHT22;23625;48.784;9.336;2023-04-30T11:18:18;16.90;60.30
37786;DHT22;23625;48.784;9.336;2023-04-30T11:20:50;16.90;59.40
37786;DHT22;23625;48.784;9.336;2023-04-30T11:23:19;17.00;59.80
37786;DHT22;23625;48.784;9.336;2023-04-30T11:25:47;17.00;60.20
37786;DHT22;23625;48.784;9.336;2023-04-30T11:28:23;17.00;60.60
37786;DHT22;23625;48.784;9.336;2023-04-30T11:30:55;17.10;61.00
37786;DHT22;23625;48.784;9.336;2023-04-30T11:33:22;17.10;61.40
37786;DHT22;23625;48.784;9.336;2023-04-30T11:35:49;17.30;60.30
37786;DHT22;23625;48.784;9.336;2023-04-30T11:38:20;17.30;58.90
37786;DHT22;23625;48.784;9.336;2023-04-30T11:40:47;17.40;59.50
37786;DHT22;23625;48.784;9.336;2023-04-30T11:43:32;17.60;60.20
37786;DHT22;23625;48.784;9.336;2023-04-30T11:46:05;17.60;60.20
37786;DHT22;23625;48.784;9.336;2023-04-30T11:48:39;17.70;59.50
37786;DHT22;23625;48.784;9.336;2023-04-30T11:51:14;17.60;58.60
37786;DHT22;23625;48.784;9.336;2023-04-30T11:53:40;17.70;58.40
37786;DHT22;23625;48.784;9.336;2023-04-30T11:56:06;17.80;58.40
37786;DHT22;23625;48.784;9.336;2023-04-30T11:58:33;17.70;58.10
37786;DHT22;23625;48.784;9.336;2023-04-30T12:01:00;17.70;58.20
37786;DHT22;23625;48.784;9.336;2023-04-30T12:03:25;17.70;58.40
37786;DHT22;23625;48.784;9.336;2023-04-30T12:05:51;17.60;58.70
37786;DHT22;23625;48.784;9.336;2023-04-30T12:08:18;17.60;59.20
37786;DHT22;23625;48.784;9.336;2023-04-30T12:10:43;17.60;59.20
37786;DHT22;23625;48.784;9.336;2023-04-30T12:13:13;17.60;59.80
37786;DHT22;23625;48.784;9.336;2023-04-30T12:15:38;17.60;59.30
37786;DHT22;23625;48.784;9.336;2023-04-30T12:18:12;17.70;60.00
37786;DHT22;23625;48.784;9.336;2023-04-30T12:20:38;17.60;59.40
37786;DHT22;23625;48.784;9.336;2023-04-30T12:23:05;17.60;60.00
37786;DHT22;23625;48.784;9.336;2023-04-30T12:25:39;17.50;59.70
37786;DHT22;23625;48.784;9.336;2023-04-30T12:28:05;17.60;59.90
37786;DHT22;23625;48.784;9.336;2023-04-30T12:30:31;17.80;60.20
37786;DHT22;23625;48.784;9.336;2023-04-30T12:32:58;17.70;59.50
37786;DHT22;23625;48.784;9.336;2023-04-30T12:35:26;17.70;59.30
37786;DHT22;23625;48.784;9.336;2023-04-30T12:38:00;17.70;58.30
37786;DHT22;23625;48.784;9.336;2023-04-30T12:40:26;17.70;59.50
37786;DHT22;23625;48.784;9.336;2023-04-30T12:43:03;17.70;59.70
37786;DHT22;23625;48.784;9.336;2023-04-30T12:45:46;17.50;58.60
37786;DHT22;23625;48.784;9.336;2023-04-30T12:48:13;17.60;59.90
37786;DHT22;23625;48.784;9.336;2023-04-30T12:50:39;17.60;60.10
37786;DHT22;23625;48.784;9.336;2023-04-30T12:53:05;17.40;60.00
37786;DHT22;23625;48.784;9.336;2023-04-30T12:55:32;17.40;59.90
37786;DHT22;23625;48.784;9.336;2023-04-30T12:58:03;17.50;60.40
37786;DHT22;23625;48.784;9.336;2023-04-30T13:00:49;17.60;61.40
37786;DHT22;23625;48.784;9.336;2023-04-30T13:03:19;17.60;61.60
37786;DHT22;23625;48.784;9.336;2023-04-30T13:05:50;17.70;60.00
37786;DHT22;23625;48.784;9.336;2023-04-30T13:08:17;17.80;60.60
37786;DHT22;23625;48.784;9.336;2023-04-30T13:10:43;17.90;58.30
37786;DHT22;23625;48.784;9.336;2023-04-30T13:13:10;17.70;58.10
37786;DHT22;23625;48.784;9.336;2023-04-30T13:15:36;17.60;59.40
37786;DHT22;23625;48.784;9.336;2023-04-30T13:18:02;17.80;59.00
37786;DHT22;23625;48.784;9.336;2023-04-30T13:20:28;17.90;58.70
37786;DHT22;23625;48.784;9.336;2023-04-30T13:22:54;17.90;57.70
37786;DHT22;23625;48.784;9.336;2023-04-30T13:25:20;18.30;58.80
37786;DHT22;23625;48.784;9.336;2023-04-30T13:27:46;18.40;58.50
37786;DHT22;23625;48.784;9.336;2023-04-30T13:30:12;18.50;57.50
37786;DHT22;23625;48.784;9.336;2023-04-30T13:32:37;18.40;56.70
37786;DHT22;23625;48.784;9.336;2023-04-30T13:35:03;18.30;56.70
37786;DHT22;23625;48.784;9.336;2023-04-30T13:37:29;18.30;56.70
37786;DHT22;23625;48.784;9.336;2023-04-30T13:40:00;18.30;57.80
37786;DHT22;23625;48.784;9.336;2023-04-30T13:42:26;18.40;56.80
37786;DHT22;23625;48.784;9.336;2023-04-30T13:44:51;18.50;57.70
37786;DHT22;23625;48.784;9.336;2023-04-30T13:47:18;18.40;56.60
37786;DHT22;23625;48.784;9.336;2023-04-30T13:49:45;18.30;57.00
37786;DHT22;23625;48.784;9.336;2023-04-30T13:52:11;18.10;57.90
37786;DHT22;23625;48.784;9.336;2023-04-30T13:54:37;18.30;57.00
37786;DHT22;23625;48.784;9.336;2023-04-30T13:57:03;18.30;57.30
37786;DHT22;23625;48.784;9.336;2023-04-30T13:59:29;18.20;57.00
37786;DHT22;23625;48.784;9.336;2023-04-30T14:01:56;18.10;56.00
37786;DHT22;23625;48.784;9.336;2023-04-30T14:04:21;18.40;58.20
37786;DHT22;23625;48.784;9.336;2023-04-30T14:06:47;18.80;56.30
37786;DHT22;23625;48.784;9.336;2023-04-30T14:09:13;19.00;54.80
37786;DHT22;23625;48.784;9.336;2023-04-30T14:11:40;18.90;54.30
37786;DHT22;23625;48.784;9.336;2023-04-30T14:14:07;18.60;54.00
37786;DHT22;23625;48.784;9.336;2023-04-30T14:16:33;18.60;55.10
37786;DHT22;23625;48.784;9.336;2023-04-30T14:18:59;18.60;56.20
37786;DHT22;23625;48.784;9.336;2023-04-30T14:21:24;18.60;55.80
37786;DHT22;23625;48.784;9.336;2023-04-30T14:23:51;18.60;55.50
37786;DHT22;23625;48.784;9.336;2023-04-30T14:26:17;18.70;55.50
37786;DHT22;23625;48.784;9.336;2023-04-30T14:28:43;18.60;55.20
37786;DHT22;23625;48.784;9.336;2023-04-30T14:31:08;18.60;55.40
37786;DHT22;23625;48.784;9.336;2023-04-30T14:33:35;18.60;54.70
37786;DHT22;23625;48.784;9.336;2023-04-30T14:36:00;18.50;54.90
37786;DHT22;23625;48.784;9.336;2023-04-30T14:38:26;18.60;54.70
37786;DHT22;23625;48.784;9.336;2023-04-30T14:40:52;18.70;54.90
37786;DHT22;23625;48.784;9.336;2023-04-30T14:43:17;18.80;54.60
37786;DHT22;23625;48.784;9.336;2023-04-30T14:45:43;18.80;55.20
37786;DHT22;23625;48.784;9.336;2023-04-30T14:48:10;18.50;55.80
37786;DHT22;23625;48.784;9.336;2023-04-30T14:50:36;18.60;55.40
37786;DHT22;23625;48.784;9.336;2023-04-30T14:53:03;18.50;56.30
37786;DHT22;23625;48.784;9.336;2023-04-30T14:55:29;18.50;55.40
37786;DHT22;23625;48.784;9.336;2023-04-30T14:57:55;18.30;55.90
37786;DHT22;23625;48.784;9.336;2023-04-30T15:00:21;18.40;55.70
37786;DHT22;23625;48.784;9.336;2023-04-30T15:02:47;18.30;55.30
37786;DHT22;23625;48.784;9.336;2023-04-30T15:05:12;18.30;56.00
37786;DHT22;23625;48.784;9.336;2023-04-30T15:07:38;18.30;55.60
37786;DHT22;23625;48.784;9.336;2023-04-30T15:10:04;18.50;55.70
37786;DHT22;23625;48.784;9.336;2023-04-30T15:12:31;18.60;55.90
37786;DHT22;23625;48.784;9.336;2023-04-30T15:14:56;18.60;55.50
37786;DHT22;23625;48.784;9.336;2023-04-30T15:17:22;18.80;54.50
37786;DHT22;23625;48.784;9.336;2023-04-30T15:19:48;18.80;54.70
37786;DHT22;23625;48.784;9.336;2023-04-30T15:22:14;18.90;55.30
37786;DHT22;23625;48.784;9.336;2023-04-30T15:24:40;19.00;54.80
37786;DHT22;23625;48.784;9.336;2023-04-30T15:27:06;18.90;54.20
37786;DHT22;23625;48.784;9.336;2023-04-30T15:29:32;18.90;54.10
37786;DHT22;23625;48.784;9.336;2023-04-30T15:31:57;19.00;54.80
37786;DHT22;23625;48.784;9.336;2023-04-30T15:34:23;19.00;54.10
37786;DHT22;23625;48.784;9.336;2023-04-30T15:36:50;18.90;54.50
37786;DHT22;23625;48.784;9.336;2023-04-30T15:39:16;18.90;55.10
37786;DHT22;23625;48.784;9.336;2023-04-30T15:41:43;19.00;54.70
37786;DHT22;23625;48.784;9.336;2023-04-30T15:44:11;18.90;53.90
37786;DHT22;23625;48.784;9.336;2023-04-30T15:46:37;19.00;54.40
37786;DHT22;23625;48.784;9.336;2023-04-30T15:49:03;19.20;54.70
37786;DHT22;23625;48.784;9.336;2023-04-30T15:51:28;19.30;54.50